createdAt,value
2022-10-16T00:05:04.446Z,74578.91
2022-10-16T00:15:09.657Z,74572.84
2022-10-16T00:25:12.830Z,74568.78
2022-10-16T00:35:17.351Z,74570.81
2022-10-16T00:45:21.647Z,74587.00
2022-10-16T00:55:25.534Z,74609.25
2022-10-16T01:05:40.518Z,74621.38
2022-10-16T01:15:58.931Z,74625.44
2022-10-16T01:26:24.421Z,74623.41
2022-10-16T01:36:34.779Z,74633.53
2022-10-16T01:46:41.096Z,74639.59
2022-10-16T01:56:43.774Z,74663.88
2022-10-16T02:06:48.154Z,74694.22
2022-10-16T02:16:50.446Z,74690.19
2022-10-16T02:27:20.927Z,74694.22
2022-10-16T02:37:24.174Z,74700.28
2022-10-16T02:47:26.639Z,74702.31
2022-10-16T02:57:30.769Z,74706.38
2022-10-16T03:07:34.897Z,74726.59
2022-10-16T03:17:39.310Z,74730.66
2022-10-16T03:27:45.609Z,74730.66
2022-10-16T03:37:47.766Z,74724.56
2022-10-16T03:47:52.146Z,74730.66
2022-10-16T03:57:56.519Z,74746.84
2022-10-16T04:07:58.554Z,74746.84
2022-10-16T04:18:03.142Z,74761.00
2022-10-16T04:28:09.600Z,74777.19
2022-10-16T04:38:11.925Z,74779.19
2022-10-16T04:48:20.423Z,74779.19
2022-10-16T04:58:24.987Z,74795.38
2022-10-16T05:08:33.601Z,74811.56
2022-10-16T05:18:35.993Z,74835.84
2022-10-16T05:28:38.117Z,74841.94
2022-10-16T05:38:45.055Z,74839.91
2022-10-16T05:48:48.475Z,74827.75
2022-10-16T05:58:50.470Z,74761.00
2022-10-16T06:08:53.264Z,74742.78
2022-10-16T06:18:57.030Z,74651.75
2022-10-16T06:29:00.508Z,74580.94
2022-10-16T06:39:02.554Z,74491.91
2022-10-16T06:49:04.520Z,74447.38
2022-10-16T06:59:11.581Z,74435.25
2022-10-16T07:09:13.802Z,74491.91
2022-10-16T07:19:23.414Z,74601.16
2022-10-16T07:29:30.285Z,74671.97
2022-10-16T07:39:37.892Z,74694.22
2022-10-16T07:49:43.412Z,74633.53
2022-10-16T07:59:45.482Z,74489.88
2022-10-16T08:09:55.281Z,74435.25
2022-10-16T08:19:57.423Z,74295.66
2022-10-16T08:29:59.464Z,74358.38
2022-10-16T08:40:05.893Z,74354.31
2022-10-16T08:50:14.713Z,74419.06
2022-10-16T09:00:17.687Z,74394.78
2022-10-16T09:10:35.089Z,74330.06
2022-10-16T09:21:02.972Z,74283.53
2022-10-16T09:31:13.799Z,74301.72
2022-10-16T09:41:24.051Z,74251.16
2022-10-16T09:51:34.464Z,74206.66
2022-10-16T10:01:39.519Z,74194.50
2022-10-16T10:11:45.305Z,74156.06
2022-10-16T10:21:54.327Z,74176.31
2022-10-16T10:32:19.899Z,74152.03
2022-10-16T10:42:33.295Z,74131.78
2022-10-16T10:52:51.559Z,74111.56
2022-10-16T11:03:31.323Z,74168.22
2022-10-16T11:13:40.235Z,74123.69
2022-10-16T11:23:49.953Z,74121.69
2022-10-16T11:34:16.930Z,74137.88
2022-10-16T11:44:31.005Z,74123.69
2022-10-16T11:54:44.685Z,74085.25
2022-10-16T12:04:57.702Z,74103.47
2022-10-16T12:15:25.726Z,74131.78
2022-10-16T12:25:47.243Z,74143.94
2022-10-16T12:35:51.978Z,74147.97
2022-10-16T12:46:23.646Z,74160.13
2022-10-16T12:56:33.244Z,74141.91
2022-10-16T13:06:48.106Z,74150.00
2022-10-16T13:17:02.712Z,74164.16
2022-10-16T13:27:14.893Z,74168.22
2022-10-16T13:37:21.449Z,74170.22
2022-10-16T13:47:25.037Z,74184.38
2022-10-16T13:57:32.419Z,74184.38
2022-10-16T14:07:40.119Z,74168.22
2022-10-16T14:17:45.451Z,74172.25
2022-10-16T14:28:05.437Z,74188.44
2022-10-16T14:38:19.754Z,74186.41
2022-10-16T14:48:24.610Z,74192.47
2022-10-16T14:58:33.980Z,74200.56
2022-10-16T15:08:38.291Z,74204.63
2022-10-16T15:18:42.783Z,74232.94
2022-10-16T15:28:49.661Z,74230.91
2022-10-16T15:38:54.796Z,74245.09
2022-10-16T15:48:58.053Z,74257.22
2022-10-16T15:59:01.094Z,74273.41
2022-10-16T16:09:05.799Z,74285.53
2022-10-16T16:19:11.846Z,74305.78
2022-10-16T16:29:16.340Z,74334.09
2022-10-16T16:39:22.875Z,74354.31
2022-10-16T16:49:24.980Z,74370.50
2022-10-16T16:59:33.812Z,74386.69
2022-10-16T17:09:36.468Z,74404.91
2022-10-16T17:19:38.512Z,74427.16
2022-10-16T17:29:40.519Z,74449.41
2022-10-16T17:39:46.911Z,74469.66
2022-10-16T17:49:51.426Z,74491.91
2022-10-16T17:59:55.980Z,74500.00
2022-10-16T18:10:10.602Z,74514.16
2022-10-16T18:20:17.325Z,74520.22
2022-10-16T18:30:22.035Z,74534.38
2022-10-16T18:40:25.502Z,74548.56
2022-10-16T18:50:34.637Z,74576.88
2022-10-16T19:00:45.045Z,74599.13
2022-10-16T19:10:48.958Z,74633.53
2022-10-16T19:20:52.258Z,74657.81
2022-10-16T19:30:56.882Z,74669.94
2022-10-16T19:41:17.953Z,74678.03
2022-10-16T19:51:20.491Z,74690.19
2022-10-16T20:01:30.113Z,74704.34
2022-10-16T20:11:35.844Z,74726.59
2022-10-16T20:21:42.696Z,74748.84
2022-10-16T20:31:44.782Z,74754.94
2022-10-16T20:41:46.770Z,74783.25
2022-10-16T20:51:56.667Z,74787.28
2022-10-16T21:02:12.101Z,74803.47
2022-10-16T21:12:16.263Z,74809.56
2022-10-16T21:22:18.249Z,74823.72
2022-10-16T21:32:22.580Z,74839.91
2022-10-16T21:42:30.392Z,74848.00
2022-10-16T21:52:32.909Z,74845.97
2022-10-16T22:02:38.799Z,74850.03
2022-10-16T22:12:40.832Z,74866.22
2022-10-16T22:22:42.833Z,74888.47
2022-10-16T22:32:47.031Z,74890.50
2022-10-16T22:42:49.196Z,74902.63
2022-10-16T22:52:56.161Z,74914.78
2022-10-16T23:02:58.374Z,74932.97
2022-10-16T23:13:00.429Z,74949.16
2022-10-16T23:23:05.258Z,74965.34
2022-10-16T23:33:07.507Z,74979.53
2022-10-16T23:43:12.063Z,75001.78
2022-10-16T23:53:14.738Z,75024.03
